Jamestown, ND (58401)

4:46 PM CDT on April 23, 2017 (GMT -0500)
Leapaldt Addition | | Change Station

Elev 1486 ft 46.93 °N, 98.69 °W | Updated 10 seconds ago

Overcast
Overcast
32.9 °F
Feels Like 24 °F
N
13.0
Wind Variable Wind from ENE
Gusts 27.0 mph

Today
High -- | Low -- °F
--% Chance of Precip.
Yesterday
High -- | Low -- °F
Precip. -- in
Pressure 30.02 in
Visibility 10.0 miles
Clouds Overcast 900 ft
Windchill 24 °F
Dew Point 30 °F
Humidity 91%
Rainfall 0.00 in
Snow Depth Not available.
6:32 AM 8:34 PM
Waning Crescent, 9% visible
METAR KJMS 232056Z AUTO 06018G27KT 10SM OVC009 01/M02 A2997 RMK AO2 PK WND 07027/2052 SLP165 T00111017 58003
Pressure 30.02 in
Visibility 10.0 miles
Clouds Overcast 900 ft
Windchill 24 °F
Dew Point 30 °F
Humidity 91%
Rainfall 0.00 in
Snow Depth Not available.
6:32 AM 8:34 PM
Waning Crescent, 9% visible
METAR KJMS 232056Z AUTO 06018G27KT 10SM OVC009 01/M02 A2997 RMK AO2 PK WND 07027/2052 SLP165 T00111017 58003

Get Severe Weather Alerts

Thanks for signing up!

Be on the lookout for a verification email in your inbox.

You'll start receiving the daily forecast at 8 AM.

×

10-Day Weather Forecast

Almanac

Astronomy

Apr. 23, 2017 Rise Set
Actual Time
Civil Twilight
Nautical Twilight
Astronomical Twilight
Moon
Length of Visible Light
Length of Day
Tomorrow will be .
, % of the Moon is Illuminated

Today's Extremes

State Highs State Lows

Community

WunderPhotos

WunderBlog® & News

Nearby

Air Quality

  Air Quality AQ Index Pollutant
Not available.

Snow Depth

Station Depth Elevation

Earthquake Activity

City Distance Mag. Time & Date
Minimum magnitude displayed is 2.5.

Coastal Water Temperatures

Place Temperature

Stations

Nearby Weather Stations

Station Location Temp. Windchill Dew Point Humidity Wind Precip. Elev Updated Type
                   

Watches & Warnings

There are currently no watches in effect.